| time (UTC) | temp C | wind direction | speed KPH | gust KPH | rain 1hr cm | rain 24hr cm | rain mn cm | humidity % | barometer mb |
| 20260507062103 | 8 | 268 | 4.8 | 11.3 | 0.03 | 0.36 | 0.33 | 94 | 1008.9 |
| 20260507061601 | 8 | 286 | 3.2 | 9.7 | 0.03 | 0.36 | 0.33 | 94 | 1008.8 |
| 20260507061059 | 8 | 282 | 4.8 | 9.7 | 0.03 | 0.36 | 0.33 | 94 | 1008.7 |
| 20260507060618 | 8 | 265 | 1.6 | 3.2 | 0.03 | 0.36 | 0.33 | 95 | 1008.6 |
| 20260507060056 | 8 | 251 | 1.6 | 6.4 | 0.03 | 0.36 | 0.33 | 95 | 1008.5 |
| 20260507055555 | 8 | 269 | 3.2 | 6.4 | 0.03 | 0.36 | 0.33 | 94 | 1008.4 |
| 20260507055052 | 8 | 231 | 3.2 | 6.4 | 0.03 | 0.36 | 0.33 | 95 | 1008.3 |
| 20260507054552 | 8 | 272 | 3.2 | 9.7 | 0.03 | 0.36 | 0.33 | 94 | 1008.3 |
| 20260507054051 | 8 | 282 | 3.2 | 9.7 | 0.03 | 0.36 | 0.33 | 94 | 1008.3 |
| 20260507053550 | 8 | 240 | 3.2 | 9.7 | 0.03 | 0.36 | 0.33 | 94 | 1008.2 |
| 20260507053045 | 8 | 237 | 3.2 | 6.4 | 0.00 | 0.33 | 0.30 | 94 | 1008.2 |
| 20260507052544 | 8 | 257 | 3.2 | 6.4 | 0.00 | 0.33 | 0.30 | 94 | 1008.1 |
| 20260507052042 | 8 | 258 | 3.2 | 6.4 | 0.00 | 0.33 | 0.30 | 94 | 1008.0 |
| 20260507051540 | 8 | 260 | 1.6 | 6.4 | 0.00 | 0.33 | 0.30 | 94 | 1008.1 |
| 20260507051039 | 8 | 298 | 1.6 | 6.4 | 0.00 | 0.33 | 0.30 | 95 | 1008.0 |
| 20260507050537 | 8 | 248 | 4.8 | 12.9 | 0.00 | 0.33 | 0.30 | 95 | 1007.9 |
| 20260507050035 | 8 | 260 | 3.2 | 9.7 | 0.00 | 0.33 | 0.30 | 95 | 1007.9 |
| 20260507045533 | 8 | 245 | 3.2 | 6.4 | 0.00 | 0.33 | 0.30 | 95 | 1007.8 |
| 20260507045032 | 8 | 259 | 3.2 | 6.4 | 0.00 | 0.33 | 0.30 | 95 | 1007.7 |
| 20260507044531 | 8 | 291 | 1.6 | 6.4 | 0.00 | 0.33 | 0.30 | 95 | 1007.7 |
| 20260507044028 | 8 | 285 | 1.6 | 6.4 | 0.00 | 0.33 | 0.30 | 95 | 1007.6 |
| 20260507043527 | 8 | 256 | 3.2 | 9.7 | 0.00 | 0.33 | 0.30 | 95 | 1007.6 |
| 20260507043025 | 8 | 250 | 3.2 | 6.4 | 0.00 | 0.33 | 0.30 | 96 | 1007.6 |
| 20260507042523 | 8 | 259 | 1.6 | 6.4 | 0.00 | 0.33 | 0.30 | 96 | 1007.5 |
| 20260507042045 | 8 | 246 | 3.2 | 9.7 | 0.00 | 0.33 | 0.30 | 96 | 1007.4 |
| 20260507041520 | 8 | 270 | 3.2 | 9.7 | 0.00 | 0.33 | 0.30 | 96 | 1007.3 |
| 20260507041018 | 8 | 245 | 1.6 | 3.2 | 0.00 | 0.33 | 0.30 | 96 | 1007.3 |
| 20260507040516 | 8 | 224 | 3.2 | 9.7 | 0.00 | 0.33 | 0.30 | 96 | 1007.3 |
| 20260507040115 | 8 | 222 | 4.8 | 6.4 | 0.00 | 0.33 | 0.30 | 96 | 1007.2 |
| 20260507035613 | 8 | 241 | 1.6 | 6.4 | 0.00 | 0.33 | 0.30 | 96 | 1007.2 |
| 20260507035112 | 8 | 248 | 1.6 | 6.4 | 0.00 | 0.33 | 0.30 | 96 | 1007.1 |
| 20260507034610 | 8 | 257 | 1.6 | 3.2 | 0.00 | 0.33 | 0.30 | 96 | 1007.0 |
| 20260507034109 | 8 | 211 | 3.2 | 9.7 | 0.00 | 0.33 | 0.30 | 96 | 1007.0 |
| 20260507033606 | 8 | 188 | 1.6 | 3.2 | 0.00 | 0.33 | 0.30 | 96 | 1007.0 |
| 20260507033105 | 8 | 225 | 0.0 | 3.2 | 0.00 | 0.33 | 0.30 | 96 | 1007.0 |
| 20260507032603 | 8 | 225 | 1.6 | 3.2 | 0.00 | 0.33 | 0.30 | 96 | 1007.0 |
| 20260507032101 | 8 | 216 | 3.2 | 11.3 | 0.00 | 0.33 | 0.30 | 95 | 1007.0 |
| 20260507031559 | 8 | 232 | 3.2 | 6.4 | 0.00 | 0.33 | 0.30 | 95 | 1006.9 |
| 20260507031058 | 8 | 225 | 3.2 | 12.9 | 0.00 | 0.33 | 0.30 | 95 | 1006.8 |
| 20260507030556 | 8 | 225 | 3.2 | 6.4 | 0.00 | 0.33 | 0.30 | 95 | 1006.8 |
| 20260507030054 | 8 | 235 | 3.2 | 6.4 | 0.00 | 0.33 | 0.30 | 94 | 1006.8 |
| 20260507025552 | 8 | 221 | 3.2 | 6.4 | 0.00 | 0.33 | 0.30 | 94 | 1006.8 |
| 20260507025051 | 8 | 219 | 3.2 | 6.4 | 0.00 | 0.33 | 0.30 | 94 | 1006.8 |
| 20260507024552 | 8 | 234 | 6.4 | 14.5 | 0.00 | 0.33 | 0.30 | 93 | 1006.8 |
| 20260507024047 | 8 | 225 | 4.8 | 6.4 | 0.03 | 0.33 | 0.30 | 94 | 1006.8 |
| 20260507023545 | 8 | 215 | 3.2 | 6.4 | 0.05 | 0.33 | 0.30 | 94 | 1006.8 |
| 20260507023044 | 8 | 216 | 4.8 | 9.7 | 0.05 | 0.33 | 0.30 | 93 | 1006.8 |
| 20260507022542 | 8 | 240 | 4.8 | 11.3 | 0.05 | 0.33 | 0.30 | 93 | 1006.7 |
| 20260507022040 | 8 | 210 | 4.8 | 11.3 | 0.05 | 0.33 | 0.30 | 93 | 1006.7 |
| 20260507021538 | 8 | 250 | 4.8 | 11.3 | 0.05 | 0.33 | 0.30 | 93 | 1006.7 |
| 20260507021057 | 8 | 251 | 4.8 | 12.9 | 0.05 | 0.33 | 0.30 | 93 | 1006.7 |
| 20260507020535 | 8 | 245 | 4.8 | 11.3 | 0.05 | 0.33 | 0.30 | 92 | 1006.6 |
| 20260507020033 | 8 | 266 | 4.8 | 11.3 | 0.05 | 0.33 | 0.30 | 93 | 1006.6 |
| 20260507015532 | 8 | 246 | 4.8 | 11.3 | 0.05 | 0.33 | 0.30 | 93 | 1006.6 |
| 20260507015031 | 8 | 244 | 3.2 | 9.7 | 0.05 | 0.33 | 0.30 | 93 | 1006.5 |
| 20260507014528 | 8 | 270 | 4.8 | 9.7 | 0.10 | 0.33 | 0.30 | 93 | 1006.5 |
| 20260507014027 | 8 | 274 | 4.8 | 9.7 | 0.05 | 0.30 | 0.28 | 93 | 1006.6 |
| 20260507013525 | 8 | 258 | 4.8 | 9.7 | 0.03 | 0.28 | 0.23 | 93 | 1006.6 |
| 20260507013023 | 8 | 249 | 6.4 | 20.9 | 0.03 | 0.28 | 0.23 | 93 | 1006.6 |
| 20260507012521 | 8 | 257 | 4.8 | 12.9 | 0.03 | 0.28 | 0.23 | 93 | 1006.5 |
| 20260507012020 | 9 | 253 | 3.2 | 9.7 | 0.03 | 0.28 | 0.23 | 93 | 1006.5 |
| 20260507011518 | 9 | 246 | 4.8 | 9.7 | 0.05 | 0.28 | 0.23 | 92 | 1006.5 |
| 20260507011016 | 9 | 228 | 6.4 | 14.5 | 0.05 | 0.28 | 0.23 | 93 | 1006.4 |
| 20260507010635 | 9 | 236 | 8.0 | 17.7 | 0.10 | 0.28 | 0.23 | 93 | 1006.4 |
| 20260507010116 | 9 | 224 | 6.4 | 14.5 | 0.10 | 0.28 | 0.23 | 93 | 1006.3 |
| 20260507005611 | 9 | 233 | 8.0 | 17.7 | 0.13 | 0.28 | 0.23 | 92 | 1006.4 |
| 20260507005110 | 9 | 214 | 9.7 | 20.9 | 0.15 | 0.28 | 0.23 | 92 | 1006.4 |
| 20260507004608 | 9 | 227 | 9.7 | 20.9 | 0.13 | 0.23 | 0.20 | 92 | 1006.4 |
| 20260507004129 | 9 | 215 | 8.0 | 17.7 | 0.15 | 0.23 | 0.20 | 92 | 1006.4 |
| 20260507003604 | 9 | 226 | 8.0 | 14.5 | 0.15 | 0.23 | 0.20 | 92 | 1006.4 |
| 20260507003103 | 9 | 224 | 9.7 | 20.9 | 0.18 | 0.23 | 0.20 | 93 | 1006.3 |
| 20260507002621 | 9 | 222 | 8.0 | 17.7 | 0.18 | 0.23 | 0.20 | 93 | 1006.3 |
| 20260507002059 | 9 | 234 | 6.4 | 14.5 | 0.18 | 0.23 | 0.20 | 94 | 1006.4 |
| 20260507001558 | 9 | 190 | 9.7 | 17.7 | 0.15 | 0.20 | 0.18 | 93 | 1006.4 |
| 20260507001056 | 10 | 194 | 8.0 | 14.5 | 0.15 | 0.20 | 0.18 | 93 | 1006.4 |
| 20260507000554 | 10 | 203 | 6.4 | 9.7 | 0.13 | 0.18 | 0.15 | 92 | 1006.4 |
| 20260507000112 | 10 | 194 | 9.7 | 17.7 | 0.13 | 0.18 | 0.15 | 93 | 1006.4 |
| 20260506235552 | 10 | 206 | 8.0 | 17.7 | 0.10 | 0.15 | 0.13 | 94 | 1006.4 |
| 20260506235049 | 10 | 181 | 6.4 | 14.5 | 0.10 | 0.13 | 0.10 | 94 | 1006.3 |
| 20260506234548 | 10 | 179 | 4.8 | 9.7 | 0.10 | 0.13 | 0.10 | 94 | 1006.3 |
| 20260506234045 | 10 | 219 | 3.2 | 9.7 | 0.05 | 0.10 | 0.05 | 93 | 1006.4 |
| 20260506233544 | 10 | 220 | 6.4 | 12.9 | 0.05 | 0.10 | 0.05 | 93 | 1006.4 |
| 20260506233042 | 10 | 220 | 4.8 | 17.7 | 0.03 | 0.10 | 0.03 | 93 | 1006.3 |
| 20260506232540 | 10 | 203 | 6.4 | 11.3 | 0.03 | 0.13 | 0.03 | 92 | 1006.4 |
| 20260506232038 | 10 | 212 | 4.8 | 11.3 | 0.03 | 0.13 | 0.03 | 92 | 1006.3 |
| 20260506231537 | 10 | 211 | 6.4 | 12.9 | 0.03 | 0.13 | 0.03 | 92 | 1006.3 |
| 20260506231055 | 10 | 207 | 4.8 | 11.3 | 0.03 | 0.13 | 0.03 | 92 | 1006.3 |
| 20260506230533 | 10 | 222 | 6.4 | 12.9 | 0.03 | 0.13 | 0.03 | 92 | 1006.3 |
| 20260506230031 | 10 | 212 | 4.8 | 11.3 | 0.03 | 0.13 | 0.03 | 92 | 1006.1 |
| 20260506225530 | 10 | 222 | 4.8 | 11.3 | 0.03 | 0.13 | 0.03 | 92 | 1006.2 |
| 20260506225051 | 10 | 214 | 6.4 | 17.7 | 0.00 | 0.10 | 0.00 | 92 | 1006.3 |
| 20260506224527 | 10 | 209 | 6.4 | 14.5 | 0.00 | 0.10 | 0.00 | 93 | 1006.2 |
| 20260506224025 | 10 | 218 | 6.4 | 11.3 | 0.00 | 0.10 | 0.00 | 92 | 1006.1 |
| 20260506223524 | 10 | 216 | 4.8 | 6.4 | 0.00 | 0.10 | 0.00 | 93 | 1006.0 |
| 20260506223021 | 10 | 207 | 6.4 | 11.3 | 0.00 | 0.10 | 0.00 | 93 | 1006.0 |
| 20260506222519 | 10 | 207 | 6.4 | 9.7 | 0.00 | 0.10 | 0.00 | 93 | 1005.9 |
| 20260506222018 | 10 | 221 | 4.8 | 9.7 | 0.00 | 0.10 | 0.00 | 92 | 1006.0 |
| 20260506221516 | 10 | 214 | 6.4 | 11.3 | 0.00 | 0.10 | 0.00 | 93 | 1005.9 |
| 20260506221114 | 10 | 212 | 4.8 | 11.3 | 0.00 | 0.10 | 0.00 | 92 | 1005.9 |
| 20260506220613 | 10 | 218 | 4.8 | 9.7 | 0.00 | 0.10 | 0.00 | 92 | 1005.9 |
| 20260506220112 | 10 | 208 | 4.8 | 9.7 | 0.00 | 0.10 | 0.00 | 92 | 1005.9 |
| 20260506215609 | 11 | 239 | 4.8 | 9.7 | 0.00 | 0.10 | 0.10 | 92 | 1005.9 |
| 20260506215108 | 11 | 203 | 6.4 | 14.5 | 0.00 | 0.10 | 0.10 | 92 | 1005.9 |
| 20260506214606 | 11 | 217 | 4.8 | 12.9 | 0.00 | 0.10 | 0.10 | 91 | 1005.9 |
| 20260506214104 | 11 | 201 | 6.4 | 12.9 | 0.00 | 0.10 | 0.10 | 90 | 1005.9 |
| 20260506213602 | 11 | 205 | 6.4 | 14.5 | 0.00 | 0.10 | 0.10 | 90 | 1005.8 |
| 20260506213101 | 11 | 209 | 6.4 | 9.7 | 0.00 | 0.10 | 0.10 | 89 | 1005.8 |
| 20260506212559 | 11 | 206 | 6.4 | 14.5 | 0.00 | 0.10 | 0.10 | 89 | 1005.8 |
| 20260506212057 | 11 | 205 | 6.4 | 12.9 | 0.00 | 0.10 | 0.10 | 88 | 1005.7 |
| 20260506211555 | 11 | 211 | 6.4 | 11.3 | 0.00 | 0.10 | 0.10 | 88 | 1005.6 |
| 20260506211054 | 11 | 214 | 6.4 | 6.4 | 0.00 | 0.10 | 0.10 | 88 | 1005.7 |
| 20260506210641 | 11 | 217 | 6.4 | 12.9 | 0.00 | 0.10 | 0.10 | 87 | 1005.7 |
| 20260506210050 | 11 | 227 | 8.0 | 11.3 | 0.00 | 0.10 | 0.10 | 87 | 1005.7 |
| 20260506205552 | 11 | 179 | 8.0 | 11.3 | 0.00 | 0.10 | 0.10 | 87 | 1005.6 |
| 20260506205050 | 11 | 221 | 4.8 | 11.3 | 0.00 | 0.10 | 0.10 | 87 | 1005.5 |
| 20260506204550 | 11 | 217 | 4.8 | 9.7 | 0.00 | 0.10 | 0.10 | 86 | 1005.5 |
| 20260506204044 | 11 | 224 | 6.4 | 11.3 | 0.00 | 0.10 | 0.10 | 86 | 1005.4 |
| 20260506203548 | 11 | 229 | 8.0 | 14.5 | 0.00 | 0.10 | 0.10 | 85 | 1005.6 |
| 20260506203040 | 12 | 227 | 6.4 | 14.5 | 0.00 | 0.10 | 0.10 | 86 | 1005.5 |
| 20260506202538 | 12 | 230 | 3.2 | 6.4 | 0.00 | 0.10 | 0.10 | 87 | 1005.4 |
| 20260506202037 | 12 | 192 | 4.8 | 9.7 | 0.00 | 0.10 | 0.10 | 87 | 1005.5 |
| 20260506201535 | 12 | 201 | 4.8 | 6.4 | 0.00 | 0.10 | 0.10 | 86 | 1005.4 |
| 20260506201033 | 12 | 205 | 6.4 | 9.7 | 0.00 | 0.10 | 0.10 | 85 | 1005.3 |
| 20260506200532 | 12 | 220 | 4.8 | 11.3 | 0.00 | 0.10 | 0.10 | 84 | 1005.2 |
| 20260506200030 | 12 | 225 | 4.8 | 11.3 | 0.00 | 0.10 | 0.10 | 85 | 1005.1 |
| 20260506195529 | 12 | 230 | 4.8 | 9.7 | 0.00 | 0.10 | 0.10 | 85 | 1005.0 |
| 20260506195027 | 12 | 236 | 3.2 | 12.9 | 0.00 | 0.10 | 0.10 | 85 | 1005.0 |
| 20260506194525 | 12 | 225 | 4.8 | 11.3 | 0.00 | 0.10 | 0.10 | 85 | 1005.0 |
| 20260506194023 | 12 | 232 | 3.2 | 6.4 | 0.00 | 0.10 | 0.10 | 86 | 1004.9 |
| 20260506193521 | 12 | 228 | 3.2 | 9.7 | 0.00 | 0.10 | 0.10 | 86 | 1004.9 |
| 20260506193020 | 12 | 221 | 4.8 | 11.3 | 0.00 | 0.10 | 0.10 | 86 | 1004.9 |
| 20260506192518 | 12 | 220 | 4.8 | 9.7 | 0.00 | 0.10 | 0.10 | 86 | 1004.8 |
| 20260506192016 | 12 | 223 | 4.8 | 9.7 | 0.00 | 0.10 | 0.10 | 86 | 1004.8 |
| 20260506191615 | 12 | 207 | 4.8 | 11.3 | 0.00 | 0.10 | 0.10 | 85 | 1004.8 |
| 20260506191113 | 12 | 211 | 6.4 | 11.3 | 0.00 | 0.10 | 0.10 | 85 | 1004.8 |
| 20260506190611 | 12 | 198 | 6.4 | 12.9 | 0.00 | 0.10 | 0.10 | 84 | 1004.7 |
| 20260506190110 | 12 | 206 | 4.8 | 9.7 | 0.00 | 0.10 | 0.10 | 84 | 1004.6 |
| 20260506185608 | 12 | 195 | 6.4 | 11.3 | 0.00 | 0.10 | 0.10 | 83 | 1004.6 |
| 20260506185106 | 12 | 192 | 4.8 | 9.7 | 0.00 | 0.10 | 0.10 | 83 | 1004.4 |
| 20260506184604 | 12 | 211 | 4.8 | 9.7 | 0.00 | 0.10 | 0.10 | 82 | 1004.3 |
| 20260506184123 | 12 | 206 | 3.2 | 6.4 | 0.00 | 0.10 | 0.10 | 81 | 1004.2 |
| 20260506183601 | 12 | 230 | 3.2 | 6.4 | 0.00 | 0.10 | 0.10 | 80 | 1004.2 |
| 20260506183059 | 12 | 199 | 3.2 | 6.4 | 0.00 | 0.10 | 0.10 | 79 | 1004.0 |
| 20260506182617 | 13 | 194 | 3.2 | 6.4 | 0.00 | 0.10 | 0.10 | 78 | 1004.0 |
| 20260506182056 | 13 | 219 | 3.2 | 6.4 | 0.00 | 0.10 | 0.10 | 77 | 1003.9 |
| 20260506181554 | 13 | 210 | 3.2 | 6.4 | 0.00 | 0.10 | 0.10 | 76 | 1003.9 |
| 20260506181052 | 13 | 220 | 3.2 | 6.4 | 0.00 | 0.10 | 0.10 | 76 | 1003.9 |
| 20260506180550 | 13 | 221 | 4.8 | 11.3 | 0.00 | 0.10 | 0.10 | 74 | 1003.7 |
| 20260506180049 | 13 | 225 | 6.4 | 12.9 | 0.00 | 0.10 | 0.10 | 74 | 1003.7 |
| 20260506175607 | 13 | 228 | 3.2 | 9.7 | 0.00 | 0.10 | 0.10 | 75 | 1003.7 |
| 20260506175045 | 13 | 225 | 3.2 | 6.4 | 0.00 | 0.10 | 0.10 | 75 | 1003.6 |
| 20260506174544 | 13 | 229 | 3.2 | 6.4 | 0.00 | 0.10 | 0.10 | 74 | 1003.6 |
| 20260506174042 | 13 | 203 | 0.0 | 3.2 | 0.00 | 0.10 | 0.10 | 77 | 1003.6 |
| 20260506173540 | 13 | 203 | 1.6 | 3.2 | 0.00 | 0.10 | 0.10 | 78 | 1003.6 |
| 20260506173038 | 13 | 203 | 0.0 | 3.2 | 0.00 | 0.10 | 0.10 | 77 | 1003.5 |
| 20260506172537 | 13 | 203 | 1.6 | 3.2 | 0.00 | 0.10 | 0.10 | 78 | 1003.5 |
| 20260506172035 | 13 | 203 | 0.0 | 3.2 | 0.00 | 0.10 | 0.10 | 77 | 1003.4 |
| 20260506171536 | 13 | 203 | 0.0 | 3.2 | 0.00 | 0.10 | 0.10 | 79 | 1003.4 |
| 20260506171031 | 13 | 203 | 0.0 | 3.2 | 0.00 | 0.10 | 0.10 | 80 | 1003.4 |
| 20260506170530 | 13 | 203 | 0.0 | 3.2 | 0.00 | 0.10 | 0.10 | 79 | 1003.4 |
| 20260506170028 | 13 | 0.0 | 0.0 | 0.00 | 0.10 | 0.10 | 80 | 1003.2 | |
| 20260506165526 | 13 | 0.0 | 3.2 | 0.00 | 0.10 | 0.10 | 81 | 1003.3 | |
| 20260506165025 | 13 | 203 | 0.0 | 3.2 | 0.00 | 0.10 | 0.10 | 79 | 1003.2 |
| 20260506164523 | 14 | 203 | 0.0 | 3.2 | 0.00 | 0.10 | 0.10 | 78 | 1003.2 |
| 20260506164021 | 14 | 203 | 1.6 | 3.2 | 0.00 | 0.15 | 0.10 | 77 | 1003.3 |
| 20260506163520 | 14 | 203 | 1.6 | 3.2 | 0.00 | 0.18 | 0.10 | 77 | 1003.2 |
| 20260506163018 | 14 | 185 | 3.2 | 6.4 | 0.00 | 0.20 | 0.10 | 78 | 1003.2 |
| 20260506162516 | 14 | 183 | 3.2 | 6.4 | 0.00 | 0.23 | 0.10 | 76 | 1003.1 |
| 20260506162115 | 14 | 219 | 3.2 | 6.4 | 0.00 | 0.28 | 0.10 | 76 | 1003.2 |
| 20260506161613 | 14 | 266 | 1.6 | 3.2 | 0.03 | 0.33 | 0.10 | 77 | 1003.1 |
| 20260506161111 | 14 | 0.0 | 3.2 | 0.03 | 0.36 | 0.10 | 78 | 1003.1 | |
| 20260506160609 | 14 | 225 | 0.0 | 3.2 | 0.03 | 0.43 | 0.10 | 78 | 1003.2 |
| 20260506160108 | 13 | 225 | 0.0 | 3.2 | 0.03 | 0.48 | 0.10 | 79 | 1003.3 |
| 20260506155606 | 13 | 225 | 0.0 | 3.2 | 0.03 | 0.53 | 0.10 | 79 | 1003.3 |
| 20260506155104 | 13 | 225 | 1.6 | 6.4 | 0.03 | 0.56 | 0.10 | 80 | 1003.5 |
| 20260506154603 | 13 | 213 | 4.8 | 9.7 | 0.03 | 0.61 | 0.10 | 81 | 1003.5 |
| 20260506154101 | 13 | 220 | 4.8 | 11.3 | 0.03 | 0.64 | 0.10 | 80 | 1003.6 |
| 20260506153559 | 13 | 225 | 3.2 | 9.7 | 0.03 | 0.64 | 0.10 | 79 | 1003.6 |
| 20260506153057 | 13 | 248 | 3.2 | 6.4 | 0.03 | 0.64 | 0.10 | 78 | 1003.7 |
| 20260506152623 | 13 | 214 | 3.2 | 9.7 | 0.03 | 0.69 | 0.10 | 77 | 1003.7 |
| 20260506152054 | 14 | 240 | 1.6 | 6.4 | 0.03 | 0.76 | 0.10 | 77 | 1003.7 |
| 20260506151552 | 14 | 225 | 3.2 | 6.4 | 0.00 | 0.79 | 0.05 | 72 | 1003.7 |
| 20260506151050 | 15 | 225 | 4.8 | 11.3 | 0.00 | 0.86 | 0.05 | 68 | 1003.7 |
| 20260506150552 | 15 | 229 | 6.4 | 11.3 | 0.00 | 0.86 | 0.05 | 67 | 1003.7 |
| 20260506150054 | 16 | 221 | 6.4 | 9.7 | 0.00 | 0.86 | 0.05 | 67 | 1003.6 |
| 20260506145545 | 16 | 215 | 4.8 | 11.3 | 0.00 | 0.86 | 0.05 | 66 | 1003.6 |
| 20260506145044 | 16 | 225 | 3.2 | 6.4 | 0.00 | 0.86 | 0.05 | 65 | 1003.5 |
| 20260506144542 | 16 | 255 | 1.6 | 6.4 | 0.00 | 0.86 | 0.05 | 64 | 1003.4 |
| 20260506144040 | 16 | 246 | 3.2 | 6.4 | 0.00 | 0.86 | 0.05 | 62 | 1003.5 |
| 20260506143538 | 16 | 254 | 1.6 | 6.4 | 0.00 | 0.86 | 0.05 | 62 | 1003.4 |
| 20260506143036 | 16 | 272 | 1.6 | 6.4 | 0.00 | 0.86 | 0.05 | 62 | 1003.4 |
| 20260506142535 | 16 | 212 | 3.2 | 3.2 | 0.00 | 0.86 | 0.05 | 63 | 1003.3 |
| 20260506142033 | 16 | 176 | 3.2 | 6.4 | 0.00 | 0.86 | 0.05 | 63 | 1003.3 |
| 20260506141531 | 16 | 192 | 4.8 | 6.4 | 0.00 | 0.86 | 0.05 | 63 | 1003.3 |
| 20260506141030 | 16 | 289 | 3.2 | 6.4 | 0.00 | 0.86 | 0.05 | 62 | 1003.4 |
| 20260506140528 | 16 | 278 | 1.6 | 6.4 | 0.00 | 0.86 | 0.05 | 62 | 1003.4 |
| 20260506140026 | 16 | 228 | 3.2 | 6.4 | 0.00 | 0.86 | 0.05 | 62 | 1003.5 |
| 20260506135531 | 16 | 221 | 3.2 | 6.4 | 0.00 | 0.86 | 0.05 | 63 | 1003.5 |
| 20260506135023 | 17 | 212 | 1.6 | 3.2 | 0.00 | 0.86 | 0.05 | 60 | 1003.5 |
| 20260506134521 | 17 | 203 | 0.0 | 6.4 | 0.00 | 0.86 | 0.05 | 60 | 1003.5 |
| 20260506134019 | 17 | 148 | 1.6 | 6.4 | 0.00 | 0.86 | 0.05 | 61 | 1003.5 |
| 20260506133518 | 16 | 135 | 3.2 | 6.4 | 0.00 | 0.86 | 0.05 | 59 | 1003.6 |
| 20260506133036 | 16 | 138 | 8.0 | 14.5 | 0.00 | 0.86 | 0.05 | 61 | 1003.6 |
| 20260506132614 | 16 | 140 | 6.4 | 9.7 | 0.00 | 0.86 | 0.05 | 60 | 1003.6 |
| 20260506132112 | 17 | 158 | 3.2 | 9.7 | 0.00 | 0.86 | 0.05 | 59 | 1003.5 |
| 20260506131631 | 17 | 147 | 3.2 | 6.4 | 0.00 | 0.86 | 0.05 | 60 | 1003.5 |
| 20260506131109 | 17 | 138 | 3.2 | 6.4 | 0.00 | 0.86 | 0.05 | 59 | 1003.5 |
| 20260506130607 | 17 | 132 | 3.2 | 6.4 | 0.00 | 0.86 | 0.05 | 58 | 1003.5 |
| 20260506130105 | 17 | 298 | 3.2 | 6.4 | 0.00 | 0.86 | 0.05 | 56 | 1003.5 |
| 20260506125604 | 17 | 288 | 1.6 | 6.4 | 0.00 | 0.86 | 0.05 | 58 | 1003.5 |
| 20260506125122 | 17 | 225 | 1.6 | 3.2 | 0.00 | 0.86 | 0.05 | 59 | 1003.6 |
| 20260506124601 | 16 | 235 | 3.2 | 6.4 | 0.00 | 0.86 | 0.05 | 61 | 1003.6 |
| 20260506124059 | 16 | 139 | 6.4 | 11.3 | 0.00 | 0.86 | 0.05 | 62 | 1003.6 |
| 20260506123557 | 16 | 190 | 3.2 | 11.3 | 0.00 | 0.86 | 0.05 | 61 | 1003.7 |
| 20260506123056 | 17 | 187 | 6.4 | 12.9 | 0.00 | 0.86 | 0.05 | 61 | 1003.8 |
| 20260506122614 | 17 | 232 | 3.2 | 9.7 | 0.00 | 0.86 | 0.05 | 60 | 1003.7 |
| 20260506122116 | 16 | 210 | 4.8 | 11.3 | 0.00 | 0.86 | 0.05 | 62 | 1003.8 |
| 20260506121551 | 17 | 237 | 4.8 | 9.7 | 0.00 | 0.86 | 0.05 | 59 | 1003.8 |
| 20260506121051 | 17 | 268 | 4.8 | 9.7 | 0.00 | 0.86 | 0.05 | 59 | 1003.8 |
| 20260506120554 | 17 | 256 | 3.2 | 6.4 | 0.00 | 0.86 | 0.05 | 59 | 1003.8 |
| 20260506120045 | 16 | 146 | 3.2 | 6.4 | 0.00 | 0.86 | 0.05 | 63 | 1003.8 |
| 20260506115543 | 16 | 175 | 1.6 | 6.4 | 0.00 | 0.86 | 0.05 | 61 | 1004.0 |
| 20260506115045 | 16 | 168 | 3.2 | 6.4 | 0.00 | 0.86 | 0.05 | 63 | 1003.9 |
| 20260506114540 | 16 | 304 | 1.6 | 6.4 | 0.00 | 0.86 | 0.05 | 60 | 1003.9 |
| 20260506114038 | 17 | 319 | 3.2 | 9.7 | 0.00 | 0.86 | 0.05 | 60 | 1003.9 |
| 20260506113537 | 17 | 183 | 3.2 | 6.4 | 0.00 | 0.86 | 0.05 | 61 | 1004.0 |
| 20260506113035 | 16 | 186 | 1.6 | 6.4 | 0.00 | 0.86 | 0.05 | 61 | 1003.9 |
| 20260506112533 | 16 | 225 | 3.2 | 11.3 | 0.00 | 0.86 | 0.05 | 60 | 1004.0 |
| 20260506112031 | 16 | 229 | 4.8 | 11.3 | 0.00 | 0.86 | 0.05 | 63 | 1004.1 |
| 20260506111530 | 16 | 185 | 4.8 | 6.4 | 0.00 | 0.86 | 0.05 | 62 | 1004.1 |
| 20260506111035 | 16 | 140 | 3.2 | 6.4 | 0.00 | 0.86 | 0.05 | 62 | 1004.2 |
| 20260506110527 | 16 | 194 | 4.8 | 11.3 | 0.00 | 0.86 | 0.05 | 61 | 1004.1 |
| 20260506110024 | 16 | 218 | 3.2 | 9.7 | 0.00 | 0.86 | 0.05 | 61 | 1004.1 |
| 20260506105523 | 16 | 169 | 6.4 | 12.9 | 0.00 | 0.86 | 0.05 | 62 | 1004.2 |
| 20260506105021 | 16 | 175 | 3.2 | 9.7 | 0.00 | 0.86 | 0.05 | 64 | 1004.2 |
| 20260506104519 | 16 | 161 | 8.0 | 11.3 | 0.00 | 0.86 | 0.05 | 65 | 1004.2 |
| 20260506104038 | 16 | 230 | 3.2 | 12.9 | 0.00 | 0.86 | 0.05 | 61 | 1004.2 |
| 20260506103536 | 16 | 247 | 1.6 | 6.4 | 0.00 | 0.86 | 0.05 | 61 | 1004.4 |
| 20260506103115 | 16 | 228 | 6.4 | 9.7 | 0.00 | 0.86 | 0.05 | 64 | 1004.2 |
| 20260506102614 | 16 | 161 | 3.2 | 6.4 | 0.00 | 0.86 | 0.05 | 64 | 1004.3 |
| 20260506102111 | 15 | 193 | 4.8 | 9.7 | 0.00 | 0.86 | 0.05 | 64 | 1004.3 |
| 20260506101609 | 16 | 196 | 8.0 | 12.9 | 0.00 | 0.86 | 0.05 | 65 | 1004.4 |
| 20260506101128 | 16 | 160 | 4.8 | 12.9 | 0.00 | 0.86 | 0.05 | 63 | 1004.4 |
| 20260506100606 | 15 | 187 | 6.4 | 12.9 | 0.00 | 0.86 | 0.05 | 66 | 1004.4 |
| 20260506100124 | 16 | 219 | 3.2 | 9.7 | 0.00 | 0.86 | 0.05 | 66 | 1004.3 |
| 20260506095603 | 16 | 177 | 4.8 | 6.4 | 0.00 | 0.86 | 0.05 | 68 | 1004.3 |
| 20260506095101 | 15 | 155 | 9.7 | 17.7 | 0.00 | 0.86 | 0.05 | 70 | 1004.3 |
| 20260506094559 | 15 | 156 | 4.8 | 17.7 | 0.00 | 0.86 | 0.05 | 70 | 1004.3 |
| 20260506094057 | 15 | 231 | 4.8 | 11.3 | 0.00 | 0.86 | 0.05 | 70 | 1004.3 |
| 20260506093556 | 15 | 151 | 3.2 | 9.7 | 0.00 | 0.86 | 0.05 | 71 | 1004.4 |
| 20260506093054 | 15 | 146 | 6.4 | 9.7 | 0.00 | 0.86 | 0.05 | 72 | 1004.5 |
| 20260506092552 | 15 | 180 | 6.4 | 11.3 | 0.00 | 0.86 | 0.05 | 71 | 1004.5 |
| 20260506092051 | 14 | 201 | 4.8 | 9.7 | 0.00 | 0.86 | 0.05 | 73 | 1004.6 |
| 20260506091550 | 14 | 221 | 4.8 | 11.3 | 0.00 | 0.86 | 0.05 | 75 | 1004.5 |
| 20260506091050 | 14 | 221 | 4.8 | 11.3 | 0.00 | 0.86 | 0.05 | 76 | 1004.6 |
| 20260506090546 | 13 | 208 | 3.2 | 9.7 | 0.00 | 0.86 | 0.05 | 78 | 1004.6 |
| 20260506090044 | 14 | 202 | 1.6 | 6.4 | 0.00 | 0.86 | 0.05 | 77 | 1004.6 |
| 20260506085542 | 14 | 213 | 3.2 | 6.4 | 0.00 | 0.86 | 0.05 | 77 | 1004.6 |
| 20260506085101 | 14 | 183 | 3.2 | 6.4 | 0.00 | 0.86 | 0.05 | 77 | 1004.6 |
| 20260506084539 | 15 | 229 | 3.2 | 6.4 | 0.00 | 0.86 | 0.05 | 75 | 1004.6 |
| 20260506084037 | 14 | 170 | 4.8 | 9.7 | 0.00 | 0.86 | 0.05 | 77 | 1004.6 |
| 20260506083535 | 13 | 139 | 4.8 | 9.7 | 0.00 | 0.86 | 0.05 | 79 | 1004.5 |
| 20260506083033 | 13 | 127 | 6.4 | 11.3 | 0.00 | 0.86 | 0.05 | 80 | 1004.6 |
| 20260506082532 | 13 | 185 | 4.8 | 12.9 | 0.00 | 0.86 | 0.05 | 79 | 1004.5 |
| 20260506082030 | 13 | 203 | 3.2 | 9.7 | 0.00 | 0.86 | 0.05 | 81 | 1004.5 |
| 20260506081529 | 12 | 272 | 1.6 | 6.4 | 0.00 | 0.86 | 0.05 | 83 | 1004.5 |
| 20260506081027 | 12 | 300 | 3.2 | 6.4 | 0.00 | 0.86 | 0.05 | 83 | 1004.5 |
| 20260506080526 | 12 | 260 | 4.8 | 11.3 | 0.00 | 0.86 | 0.05 | 85 | 1004.5 |
| 20260506073116 | 12 | 248 | 3.2 | 11.3 | 0.00 | 0.86 | 0.05 | 86 | 1004.3 |
| 20260506072631 | 12 | 248 | 3.2 | 6.4 | 0.00 | 0.86 | 0.05 | 87 | 1004.3 |
| 20260506072109 | 12 | 239 | 6.4 | 11.3 | 0.00 | 0.86 | 0.05 | 87 | 1004.3 |
| 20260506071611 | 12 | 229 | 4.8 | 11.3 | 0.00 | 0.86 | 0.05 | 87 | 1004.2 |
| 20260506071126 | 12 | 233 | 4.8 | 9.7 | 0.00 | 0.86 | 0.05 | 87 | 1004.2 |
| 20260506070605 | 12 | 227 | 3.2 | 6.4 | 0.00 | 0.86 | 0.05 | 88 | 1004.2 |
| 20260506070103 | 12 | 234 | 4.8 | 6.4 | 0.00 | 0.86 | 0.05 | 87 | 1004.2 |